Portada
METAR-TAF:

METAR-TAF

Aeroports :

Hiroshima, Japó

latitud: 34-26N, longitud: 132-55E, altitud: 331 m

Observació

L'informe es va fer fa 4 hores i 56 minuts, a les 13:00 UTC
Vent 2 kt amb direcció variable
Temperatura 11°C
Humitat 76%
Pressió 1023 hPa
Visibilitat 10 km o més
sense núvols per sota de 1500 mi sense presència de cumulonimbus.

METAR: RJOA 261300Z VRB02KT CAVOK 11/07 Q1023

Hora: 02:56 (17:56 UTC)

Pronòstic

L'informe es va fer fa 51 minuts, a les 17:05 UTC
Pronòstic vàlid del 26 a les 18 UTC al 28 a les 00 UTC
Vent 5 kt del Nord-Oest
Visibilitat 10 km o més
Escasses núvols a una alçada de 1500 ft
Núvols disperses a una alçada de 4500 ft

TAF: RJOA 261705Z 2618/2800 32005KT 9999 FEW015 SCT045

Observacions i pronòstics meteorològics de més de 4000 aeroports (METAR i TAF).

Les estacions disponibles són els punts grocs i vermells al mapa.

Posi el ratolí al punt desitjat per veure el nom de l'estació.

Feu clic per veure les observacions i els pronòstics meteorològics.

Per canviar el mapa: feu clic els botons verds amb una creu de color negre per apropar; al botó verd amb un guió per allunyar la imatge; o en les fletxes verdes per a mapes adjacents.


METAR-TAF: